createdAt,value
2022-08-30T03:11:39.153Z,95.98
2022-08-30T03:14:41.821Z,95.98
2022-08-30T03:17:44.046Z,98.18
2022-08-30T03:20:53.980Z,97.71
2022-08-30T03:23:56.858Z,98.28
2022-08-30T03:26:59.218Z,97.94
2022-08-30T03:30:01.665Z,97.16
2022-08-30T03:33:04.154Z,97.15
2022-08-30T03:36:09.349Z,96.99
2022-08-30T03:39:12.522Z,98.30
2022-08-30T03:42:16.345Z,97.68
2022-08-30T03:45:19.675Z,97.27
2022-08-30T03:48:21.875Z,97.47
2022-08-30T03:51:24.855Z,96.36
2022-08-30T03:54:26.971Z,96.54
2022-08-30T03:57:29.503Z,96.30
2022-08-30T04:00:33.490Z,95.98
2022-08-30T04:03:37.132Z,95.49
2022-08-30T04:06:39.328Z,95.54
2022-08-30T04:09:41.870Z,96.01
2022-08-30T04:12:48.888Z,96.64
2022-08-30T04:15:52.088Z,97.47
2022-08-30T04:18:54.173Z,97.50
2022-08-30T04:21:57.307Z,97.04
2022-08-30T04:24:59.549Z,97.42
2022-08-30T04:28:02.303Z,96.40
2022-08-30T04:31:12.679Z,95.92
2022-08-30T04:34:17.761Z,94.91
2022-08-30T04:37:19.939Z,94.29
2022-08-30T04:40:23.136Z,93.77
2022-08-30T04:43:26.735Z,92.32
2022-08-30T04:46:30.725Z,90.50
2022-08-30T04:49:33.116Z,89.95
2022-08-30T04:52:35.503Z,87.20
2022-08-30T04:55:39.807Z,82.77
2022-08-30T04:58:46.637Z,82.07
2022-08-30T05:01:48.767Z,81.01
2022-08-30T05:05:09.853Z,78.20
2022-08-30T05:08:15.433Z,76.56
2022-08-30T05:11:18.285Z,76.31
2022-08-30T05:14:20.487Z,77.02
2022-08-30T05:17:22.838Z,74.61
2022-08-30T05:20:25.229Z,72.95
2022-08-30T05:23:27.762Z,71.72
2022-08-30T05:26:33.645Z,71.08
2022-08-30T05:29:36.136Z,68.84
2022-08-30T05:32:38.223Z,69.62
2022-08-30T05:35:40.824Z,67.51
2022-08-30T05:38:43.609Z,65.85
2022-08-30T05:41:46.467Z,62.46
2022-08-30T05:44:53.502Z,62.88
2022-08-30T05:47:56.393Z,62.30
2022-08-30T05:51:13.611Z,61.44
2022-08-30T05:54:16.698Z,61.64
2022-08-30T05:57:20.019Z,62.02
2022-08-30T06:00:23.534Z,59.66
2022-08-30T06:03:26.451Z,58.05
2022-08-30T06:06:30.753Z,59.37
2022-08-30T06:09:33.113Z,59.66
2022-08-30T06:12:35.218Z,57.96
2022-08-30T06:15:37.856Z,59.78
2022-08-30T06:18:40.078Z,59.28
2022-08-30T06:21:43.395Z,58.22
2022-08-30T06:25:00.392Z,58.31
2022-08-30T06:28:03.164Z,57.62
2022-08-30T06:31:07.252Z,57.57
2022-08-30T06:34:09.837Z,55.85
2022-08-30T06:37:11.914Z,54.46
2022-08-30T06:40:27.958Z,53.80
2022-08-30T06:43:30.395Z,53.60
2022-08-30T06:46:35.795Z,54.80
2022-08-30T06:49:37.990Z,52.67
2022-08-30T06:52:42.268Z,53.78
2022-08-30T06:55:44.447Z,54.60
2022-08-30T06:58:47.352Z,54.12
2022-08-30T07:01:49.584Z,54.39
2022-08-30T07:04:52.275Z,53.56
2022-08-30T07:07:54.479Z,52.15
2022-08-30T07:10:58.091Z,53.34
2022-08-30T07:14:00.853Z,51.74
2022-08-30T07:17:23.465Z,50.35
2022-08-30T07:20:25.562Z,48.75
2022-08-30T07:23:28.042Z,49.53
2022-08-30T07:26:36.909Z,46.92
2022-08-30T07:29:39.263Z,47.59
2022-08-30T07:32:41.411Z,46.18
2022-08-30T07:35:43.809Z,44.27
2022-08-30T07:38:46.692Z,44.19
2022-08-30T07:41:49.565Z,43.85
2022-08-30T07:44:56.041Z,43.56
2022-08-30T07:47:59.129Z,43.61
2022-08-30T07:51:05.160Z,44.27
2022-08-30T07:54:08.043Z,44.43
2022-08-30T07:57:10.162Z,45.42
2022-08-30T08:00:15.830Z,44.96
2022-08-30T08:03:18.471Z,45.05
2022-08-30T08:06:21.961Z,45.31
2022-08-30T08:09:24.339Z,45.14
2022-08-30T08:12:27.083Z,44.00
2022-08-30T08:15:29.709Z,45.16
2022-08-30T08:18:33.287Z,43.78
2022-08-30T08:21:37.023Z,44.14
2022-08-30T08:24:39.137Z,43.07
2022-08-30T08:27:42.061Z,42.72
2022-08-30T08:30:48.170Z,42.84
2022-08-30T08:33:51.044Z,43.51
2022-08-30T08:36:54.092Z,44.46
2022-08-30T08:39:56.790Z,43.83
2022-08-30T08:43:05.188Z,43.27
2022-08-30T08:46:23.068Z,44.14
2022-08-30T08:49:26.800Z,43.78
2022-08-30T08:53:13.331Z,43.85
2022-08-30T08:56:23.277Z,42.00
2022-08-30T08:59:25.728Z,40.79
2022-08-30T09:02:34.425Z,40.27
2022-08-30T09:05:39.358Z,40.16
2022-08-30T09:08:41.459Z,39.58
2022-08-30T09:11:46.092Z,40.97
2022-08-30T09:14:55.671Z,40.85
2022-08-30T09:18:05.255Z,42.59
2022-08-30T09:21:09.298Z,41.77
2022-08-30T09:24:15.458Z,42.07
2022-08-30T09:27:26.626Z,41.49
2022-08-30T09:30:30.302Z,40.83
2022-08-30T09:33:32.750Z,41.08
2022-08-30T09:36:50.875Z,40.35
2022-08-30T09:39:53.261Z,40.46
2022-08-30T09:43:02.548Z,40.27
2022-08-30T09:46:09.876Z,38.09
2022-08-30T09:49:30.050Z,36.58
2022-08-30T09:52:35.450Z,33.16
2022-08-30T09:55:47.430Z,32.17
2022-08-30T09:59:06.143Z,33.34
2022-08-30T10:02:30.229Z,32.44
2022-08-30T10:06:03.859Z,33.59
2022-08-30T10:09:27.351Z,33.23
2022-08-30T10:12:44.026Z,33.13
2022-08-30T10:15:54.435Z,32.96
2022-08-30T10:19:10.917Z,33.73
2022-08-30T10:22:20.233Z,33.48
2022-08-30T10:25:35.205Z,31.97
2022-08-30T10:28:52.318Z,32.47
2022-08-30T10:31:59.323Z,31.90
2022-08-30T10:35:19.650Z,31.14
2022-08-30T10:38:29.411Z,33.14
2022-08-30T10:41:31.440Z,34.81
2022-08-30T10:44:47.520Z,34.92
2022-08-30T10:47:55.662Z,34.05
2022-08-30T10:51:07.473Z,31.33
2022-08-30T10:54:33.035Z,26.43
2022-08-30T10:57:35.503Z,23.80
2022-08-30T11:00:45.796Z,24.46
2022-08-30T11:04:22.237Z,23.28
2022-08-30T11:07:53.691Z,19.00
2022-08-30T11:11:12.590Z,17.64
2022-08-30T11:14:17.849Z,13.91
2022-08-30T11:17:35.715Z,12.27
2022-08-30T11:20:45.598Z,12.85
2022-08-30T11:24:06.595Z,15.15
2022-08-30T11:27:40.861Z,14.41
2022-08-30T11:30:43.131Z,18.54
2022-08-30T11:33:57.666Z,16.03
2022-08-30T11:37:02.915Z,17.36
2022-08-30T11:40:13.322Z,20.61
2022-08-30T11:43:43.173Z,24.39
2022-08-30T11:46:46.405Z,27.58
2022-08-30T11:50:02.738Z,29.08
2022-08-30T11:53:33.758Z,30.34
2022-08-30T11:56:45.087Z,30.39
2022-08-30T12:00:09.113Z,31.12
2022-08-30T12:03:14.684Z,33.38
2022-08-30T12:06:48.770Z,33.66
2022-08-30T12:09:52.860Z,34.53
2022-08-30T12:12:55.634Z,35.63
2022-08-30T12:16:02.958Z,36.58
2022-08-30T12:19:19.363Z,37.56
2022-08-30T12:22:22.217Z,37.72
2022-08-30T12:25:34.173Z,37.68
2022-08-30T12:28:38.731Z,37.59
2022-08-30T12:31:58.148Z,37.41
2022-08-30T12:35:03.927Z,38.39
2022-08-30T12:38:14.290Z,39.43
2022-08-30T12:41:22.310Z,38.19
2022-08-30T12:44:27.498Z,37.91
2022-08-30T12:47:42.064Z,38.42
2022-08-30T12:50:51.654Z,36.01
2022-08-30T12:54:02.218Z,35.12
2022-08-30T12:57:25.345Z,35.75
2022-08-30T13:00:45.070Z,35.52
2022-08-30T13:04:20.953Z,36.29
2022-08-30T13:07:32.657Z,34.79
2022-08-30T13:10:35.926Z,34.13
2022-08-30T13:13:45.635Z,35.60
2022-08-30T13:17:10.476Z,36.39
2022-08-30T13:20:16.317Z,34.51
2022-08-30T13:23:22.566Z,35.41
2022-08-30T13:26:25.903Z,36.12
2022-08-30T13:29:29.556Z,37.53
2022-08-30T13:32:38.793Z,36.71
2022-08-30T13:35:41.235Z,37.07
2022-08-30T13:38:43.582Z,35.93
2022-08-30T13:41:45.929Z,35.36
2022-08-30T13:44:49.522Z,36.63
2022-08-30T13:47:51.677Z,37.41
2022-08-30T13:50:55.320Z,37.30
2022-08-30T13:53:58.185Z,37.95
2022-08-30T13:57:00.988Z,40.13
2022-08-30T14:00:08.335Z,40.93
2022-08-30T14:03:14.851Z,39.48
2022-08-30T14:06:32.616Z,40.07
2022-08-30T14:09:37.276Z,40.95
2022-08-30T14:13:00.655Z,41.45
2022-08-30T14:19:27.245Z,40.81
2022-08-30T14:22:29.367Z,41.79
2022-08-30T14:25:31.848Z,43.35
2022-08-30T14:28:33.958Z,41.86
2022-08-30T14:31:40.009Z,42.20
2022-08-30T14:34:42.185Z,44.13
2022-08-30T14:37:46.956Z,44.92
2022-08-30T14:40:49.063Z,44.02
2022-08-30T14:43:51.893Z,44.51
2022-08-30T14:46:55.338Z,44.64
2022-08-30T14:50:00.794Z,44.13
2022-08-30T14:53:03.473Z,45.18
2022-08-30T14:56:12.109Z,44.08
2022-08-30T14:59:15.069Z,44.47
2022-08-30T15:02:19.332Z,44.63
2022-08-30T15:05:21.461Z,45.39
2022-08-30T15:08:24.578Z,45.24
2022-08-30T15:11:27.794Z,45.60
2022-08-30T15:14:32.560Z,46.04
